Time;durP1;ratioP1;P1;durP2;ratioP2;P2;SDS_P1;SDS_P2;PMS_P1;PMS_P2;Temp;Humidity;BMP_temperature;BMP_pressure;BME280_temperature;BME280_humidity;BME280_pressure;Samples;Min_cycle;Max_cycle;Signal;HPM_P1;HPM_P2
2023/01/17 00:01:39;;;;;;;2.97;1.27;;;3.00;99.90;;;;;;5013833;28;20043;-71
2023/01/17 00:12:16;;;;;;;1.85;1.05;;;3.30;99.90;;;;;;5030635;28;20037;-72
2023/01/17 00:14:42;;;;;;;3.03;1.13;;;3.10;99.90;;;;;;5027088;28;20037;-72
2023/01/17 00:17:07;;;;;;;2.33;1.08;;;3.10;99.90;;;;;;5025202;28;20037;-72
2023/01/17 01:34:17;;;;;;;1.40;0.52;;;2.80;99.90;;;;;;5028042;28;20046;-67
2023/01/17 01:36:42;;;;;;;3.50;0.50;;;2.60;99.90;;;;;;5029403;28;20041;-67
2023/01/17 01:39:08;;;;;;;0.85;0.50;;;2.70;99.90;;;;;;5012847;28;20485;-67
2023/01/17 01:41:33;;;;;;;4.13;0.50;;;2.70;99.90;;;;;;5031512;28;20481;-67
2023/01/17 01:43:59;;;;;;;5.55;0.60;;;2.60;99.90;;;;;;5025564;28;20038;-66
2023/01/17 01:46:34;;;;;;;4.30;0.57;;;2.50;99.90;;;;;;5029873;28;20494;-67
2023/01/17 01:49:02;;;;;;;4.03;0.60;;;2.70;99.90;;;;;;5028453;28;20046;-67
2023/01/17 01:51:37;;;;;;;4.85;0.60;;;2.30;99.90;;;;;;5027899;28;20037;-68
2023/01/17 01:54:11;;;;;;;4.03;0.77;;;2.60;99.90;;;;;;5024174;28;20045;-67
2023/01/17 01:56:38;;;;;;;2.65;0.47;;;2.40;99.90;;;;;;5026216;28;20101;-67
2023/01/17 01:59:07;;;;;;;4.05;0.52;;;2.40;99.90;;;;;;5004913;28;20045;-68
2023/01/17 02:01:33;;;;;;;1.45;0.60;;;2.60;99.90;;;;;;5024697;28;20035;-68
2023/01/17 02:03:59;;;;;;;2.20;0.60;;;2.40;99.90;;;;;;5028221;28;20044;-68
2023/01/17 02:06:26;;;;;;;4.18;0.50;;;2.50;99.90;;;;;;5013851;28;20057;-68
2023/01/17 02:08:52;;;;;;;4.55;0.77;;;2.40;99.90;;;;;;5023629;28;20061;-69
2023/01/17 02:11:18;;;;;;;4.68;0.70;;;2.60;99.90;;;;;;5027968;28;20041;-68
2023/01/17 02:13:43;;;;;;;4.68;0.75;;;2.70;99.90;;;;;;5027834;28;20029;-68
2023/01/17 02:16:44;;;;;;;3.08;0.95;;;2.40;99.90;;;;;;5007823;28;20041;-68
2023/01/17 02:19:33;;;;;;;4.38;0.40;;;2.50;99.90;;;;;;5026092;28;20915;-67
2023/01/17 02:21:59;;;;;;;4.00;0.70;;;2.60;99.90;;;;;;5028299;28;20484;-68
2023/01/17 02:24:55;;;;;;;4.55;0.80;;;2.20;99.90;;;;;;5024220;28;20087;-68
2023/01/17 02:27:25;;;;;;;4.68;0.60;;;2.50;99.90;;;;;;5027481;28;20045;-68
2023/01/17 02:30:12;;;;;;;4.60;0.70;;;2.20;99.90;;;;;;5009912;28;20124;-69
2023/01/17 02:33:11;;;;;;;5.55;0.70;;;2.40;99.90;;;;;;5009527;28;20052;-69
2023/01/17 02:35:47;;;;;;;3.58;0.63;;;2.20;99.90;;;;;;5024341;28;20405;-68
2023/01/17 02:38:33;;;;;;;4.00;0.70;;;2.00;99.90;;;;;;5028143;28;20124;-69
2023/01/17 02:41:06;;;;;;;4.78;0.63;;;2.10;99.90;;;;;;5022149;28;20132;-67
2023/01/17 02:43:34;;;;;;;5.72;1.10;;;2.00;99.90;;;;;;5030982;28;20393;-67
2023/01/17 02:46:00;;;;;;;4.28;0.50;;;2.30;99.90;;;;;;5028230;28;20041;-68
2023/01/17 02:48:28;;;;;;;5.57;0.63;;;2.00;99.90;;;;;;5044986;28;20037;-68
2023/01/17 02:51:24;;;;;;;4.55;0.90;;;2.20;99.90;;;;;;5028661;28;20049;-68
2023/01/17 02:54:05;;;;;;;1.50;0.43;;;2.10;99.90;;;;;;5025133;28;20060;-67
2023/01/17 02:57:01;;;;;;;4.28;0.77;;;2.20;99.90;;;;;;5029258;28;20429;-68
2023/01/17 02:59:39;;;;;;;2.47;0.70;;;2.30;99.90;;;;;;5027597;28;20041;-68
2023/01/17 03:02:24;;;;;;;7.18;1.00;;;2.00;99.90;;;;;;5013884;28;20049;-68
2023/01/17 03:05:05;;;;;;;2.72;0.82;;;2.30;99.90;;;;;;5028212;28;20128;-68
2023/01/17 03:07:32;;;;;;;3.90;0.70;;;2.00;99.90;;;;;;5028229;28;20063;-68
2023/01/17 03:10:03;;;;;;;4.07;0.75;;;2.10;99.90;;;;;;5028425;28;20087;-68
2023/01/17 03:12:31;;;;;;;2.42;0.60;;;2.30;99.90;;;;;;5032696;28;20128;-68
2023/01/17 03:14:57;;;;;;;4.22;0.68;;;2.40;99.90;;;;;;5024508;28;20038;-69
2023/01/17 03:17:27;;;;;;;3.50;0.70;;;2.20;99.90;;;;;;5047439;28;20473;-68
2023/01/17 03:19:52;;;;;;;4.80;0.77;;;2.00;99.90;;;;;;5030098;28;20041;-69
2023/01/17 03:22:18;;;;;;;5.15;0.70;;;2.20;99.90;;;;;;5014006;28;20037;-68
2023/01/17 03:24:44;;;;;;;7.35;1.48;;;2.00;99.90;;;;;;5029836;28;20122;-68
2023/01/17 03:27:09;;;;;;;4.72;0.77;;;2.00;99.90;;;;;;5031954;28;20045;-68
2023/01/17 03:29:35;;;;;;;2.10;0.50;;;2.20;99.90;;;;;;5029565;28;20041;-69
2023/01/17 03:32:00;;;;;;;6.43;1.10;;;2.00;99.90;;;;;;5031498;28;20038;-72
2023/01/17 03:34:26;;;;;;;9.27;0.95;;;2.30;99.90;;;;;;5031223;28;20034;-69
2023/01/17 03:36:51;;;;;;;3.13;0.70;;;2.40;99.90;;;;;;5026517;28;20041;-68
2023/01/17 03:39:17;;;;;;;3.13;0.75;;;2.40;99.90;;;;;;5013818;28;20037;-68
2023/01/17 03:41:42;;;;;;;5.35;0.77;;;2.20;99.90;;;;;;5033721;28;20037;-69
2023/01/17 03:44:08;;;;;;;3.58;0.80;;;2.40;99.90;;;;;;5030454;28;20041;-68
2023/01/17 03:46:33;;;;;;;3.80;0.77;;;2.50;99.90;;;;;;5031573;28;20049;-68
2023/01/17 03:48:59;;;;;;;2.78;0.80;;;2.20;99.90;;;;;;5031634;28;20044;-68
2023/01/17 03:51:25;;;;;;;6.43;0.70;;;2.40;99.90;;;;;;5026203;28;20103;-68
2023/01/17 03:53:50;;;;;;;3.08;0.68;;;2.20;99.90;;;;;;5012052;28;20661;-68
2023/01/17 03:56:16;;;;;;;2.78;0.65;;;2.20;99.90;;;;;;5032129;28;20061;-68
2023/01/17 03:58:42;;;;;;;6.07;0.80;;;2.30;99.90;;;;;;5024149;28;20041;-68
2023/01/17 04:01:08;;;;;;;3.90;0.73;;;2.30;99.90;;;;;;5029256;28;20514;-69
2023/01/17 04:03:34;;;;;;;3.83;0.80;;;2.10;99.90;;;;;;5029291;28;20041;-69
2023/01/17 04:06:00;;;;;;;4.25;0.98;;;2.20;99.90;;;;;;5024475;28;20050;-68
2023/01/17 04:08:25;;;;;;;3.60;0.80;;;2.30;99.90;;;;;;5025613;28;20110;-68
2023/01/17 04:10:51;;;;;;;5.60;0.90;;;1.80;99.90;;;;;;5029602;28;20485;-68
2023/01/17 04:13:17;;;;;;;3.30;0.73;;;1.80;99.90;;;;;;5029607;28;20046;-67
2023/01/17 04:15:47;;;;;;;4.75;0.80;;;2.10;99.90;;;;;;5028005;28;20037;-68
2023/01/17 04:18:16;;;;;;;3.72;0.90;;;2.20;99.90;;;;;;5028220;28;20382;-68
2023/01/17 04:20:42;;;;;;;6.55;1.00;;;1.80;99.90;;;;;;5028413;28;20120;-68
2023/01/17 04:23:08;;;;;;;5.72;1.00;;;1.70;99.90;;;;;;5023609;28;20056;-68
2023/01/17 04:25:33;;;;;;;6.03;0.80;;;1.70;99.90;;;;;;5024841;28;20374;-68
2023/01/17 04:28:02;;;;;;;4.10;0.70;;;1.60;99.90;;;;;;5026667;28;20128;-68
2023/01/17 04:30:28;;;;;;;9.55;1.02;;;1.60;99.90;;;;;;5028300;28;20037;-68
2023/01/17 04:32:54;;;;;;;7.50;1.00;;;1.40;99.90;;;;;;5027966;28;20040;-68
2023/01/17 04:35:20;;;;;;;4.07;1.10;;;1.70;99.90;;;;;;5028780;28;20065;-68
2023/01/17 04:37:45;;;;;;;7.35;0.70;;;1.40;99.90;;;;;;5026751;28;20394;-68
2023/01/17 04:40:11;;;;;;;5.88;1.10;;;1.40;99.90;;;;;;5019222;28;20063;-68
2023/01/17 04:42:37;;;;;;;6.03;1.15;;;1.30;99.90;;;;;;5028995;28;20065;-68
2023/01/17 04:45:03;;;;;;;3.10;0.90;;;1.40;99.90;;;;;;5028428;28;20049;-68
2023/01/17 04:47:31;;;;;;;5.32;0.88;;;1.40;99.90;;;;;;5031309;28;20121;-68
2023/01/17 04:49:57;;;;;;;3.28;0.80;;;1.60;99.90;;;;;;5026736;28;20145;-68
2023/01/17 04:52:23;;;;;;;6.32;1.17;;;1.40;99.90;;;;;;5025687;28;20124;-68
2023/01/17 04:54:49;;;;;;;4.22;0.73;;;1.20;99.90;;;;;;5027815;28;20376;-68
2023/01/17 04:57:16;;;;;;;5.63;1.02;;;1.20;99.90;;;;;;5027049;28;20041;-68
2023/01/17 04:59:42;;;;;;;7.35;1.00;;;1.50;99.90;;;;;;5026421;28;20385;-68
2023/01/17 05:02:08;;;;;;;4.57;0.90;;;1.30;99.90;;;;;;5028252;28;20038;-68
2023/01/17 05:04:34;;;;;;;8.00;1.08;;;1.40;99.90;;;;;;5026882;28;20108;-68
2023/01/17 05:07:00;;;;;;;4.97;0.88;;;1.20;99.90;;;;;;5025721;28;20477;-68
2023/01/17 05:09:25;;;;;;;3.88;0.80;;;1.00;99.90;;;;;;5027905;28;20037;-67
2023/01/17 05:11:51;;;;;;;4.72;0.80;;;1.30;99.90;;;;;;5025186;28;20519;-68
2023/01/17 05:14:16;;;;;;;6.63;1.00;;;1.30;99.90;;;;;;5026904;28;20042;-67
2023/01/17 05:16:42;;;;;;;6.38;1.02;;;1.30;99.90;;;;;;5028274;28;20112;-67
2023/01/17 05:19:07;;;;;;;5.75;0.73;;;1.00;99.90;;;;;;5029545;28;20041;-66
2023/01/17 05:21:33;;;;;;;6.68;1.02;;;1.30;99.90;;;;;;5027287;28;20507;-68
2023/01/17 05:23:58;;;;;;;5.70;1.05;;;1.20;99.90;;;;;;5026609;28;20051;-68
2023/01/17 05:26:24;;;;;;;3.45;0.82;;;1.20;99.90;;;;;;5028799;28;20120;-68
2023/01/17 05:28:50;;;;;;;5.28;1.00;;;1.10;99.90;;;;;;5024110;28;20037;-68
2023/01/17 05:31:16;;;;;;;6.63;1.08;;;1.00;99.90;;;;;;5026020;28;20564;-67
2023/01/17 05:33:41;;;;;;;5.70;1.23;;;1.10;99.90;;;;;;5028149;28;20037;-68
2023/01/17 05:36:07;;;;;;;5.95;0.90;;;0.80;99.90;;;;;;5030250;28;20053;-68
2023/01/17 05:38:33;;;;;;;6.15;0.80;;;1.10;99.90;;;;;;5023834;28;20076;-68
2023/01/17 05:41:00;;;;;;;13.02;1.50;;;1.00;99.90;;;;;;5029894;28;20073;-68
2023/01/17 05:43:27;;;;;;;5.53;0.70;;;0.90;99.90;;;;;;5025168;28;20056;-69
2023/01/17 05:45:52;;;;;;;1.70;0.65;;;0.80;99.90;;;;;;5028099;28;20075;-68
2023/01/17 05:48:18;;;;;;;2.30;0.60;;;0.60;99.90;;;;;;5024868;28;20505;-68
2023/01/17 05:50:43;;;;;;;6.57;0.82;;;0.80;99.90;;;;;;5030631;28;20045;-68
2023/01/17 05:53:12;;;;;;;3.30;0.80;;;0.80;99.90;;;;;;5024941;28;20085;-69
2023/01/17 05:55:38;;;;;;;6.30;0.95;;;0.50;99.90;;;;;;5027020;28;20140;-68
2023/01/17 05:58:05;;;;;;;1.30;0.77;;;0.50;99.90;;;;;;5027346;28;20041;-68
2023/01/17 06:00:31;;;;;;;4.50;0.70;;;0.70;99.90;;;;;;5024205;28;20042;-69
2023/01/17 06:02:59;;;;;;;3.95;0.70;;;0.60;99.90;;;;;;5027916;28;20123;-69
2023/01/17 06:05:26;;;;;;;3.53;0.60;;;0.60;99.90;;;;;;5026453;28;20049;-67
2023/01/17 06:07:51;;;;;;;2.05;0.50;;;0.60;99.90;;;;;;5024526;28;20132;-68
2023/01/17 06:10:19;;;;;;;3.63;0.60;;;0.50;99.90;;;;;;5026518;28;20584;-68
2023/01/17 06:12:45;;;;;;;3.40;0.60;;;0.30;99.90;;;;;;5025853;28;20041;-68
2023/01/17 06:15:13;;;;;;;4.80;0.70;;;0.50;99.90;;;;;;5025746;28;20421;-67
2023/01/17 06:17:39;;;;;;;5.47;1.20;;;0.30;99.90;;;;;;5022750;28;20048;-68
2023/01/17 06:20:06;;;;;;;5.95;1.02;;;0.30;99.90;;;;;;5026390;28;20041;-68
2023/01/17 06:22:32;;;;;;;1.17;0.63;;;0.30;99.90;;;;;;5028079;28;20036;-67
2023/01/17 06:24:58;;;;;;;3.47;0.70;;;0.40;99.90;;;;;;5040613;28;20045;-68
2023/01/17 06:27:23;;;;;;;6.35;0.82;;;0.40;99.90;;;;;;5026946;28;20045;-68
2023/01/17 06:29:49;;;;;;;6.70;0.70;;;0.30;99.90;;;;;;5024672;28;20045;-68
2023/01/17 06:32:15;;;;;;;1.40;0.82;;;0.20;99.90;;;;;;5006286;28;20077;-68
2023/01/17 06:34:40;;;;;;;3.80;0.70;;;0.30;99.90;;;;;;5028269;28;20473;-66
2023/01/17 06:37:06;;;;;;;3.03;0.77;;;0.30;99.90;;;;;;5024784;28;20053;-67
2023/01/17 06:39:32;;;;;;;4.00;0.90;;;0.20;99.90;;;;;;5023734;28;20043;-68
2023/01/17 06:41:57;;;;;;;3.80;0.73;;;0.30;99.90;;;;;;5026296;28;20481;-67
2023/01/17 06:44:25;;;;;;;6.75;0.73;;;0.10;99.90;;;;;;5023641;28;20076;-68
2023/01/17 06:46:52;;;;;;;4.05;0.93;;;0.20;99.90;;;;;;5024732;28;20037;-68
2023/01/17 06:49:17;;;;;;;4.30;0.82;;;0.30;99.90;;;;;;5025140;28;20037;-67
2023/01/17 06:51:43;;;;;;;4.82;0.77;;;0.10;99.90;;;;;;5022302;28;20530;-68
2023/01/17 06:54:09;;;;;;;4.57;0.93;;;0.30;99.90;;;;;;5028164;28;20033;-68
2023/01/17 06:56:35;;;;;;;3.25;0.70;;;0.30;99.90;;;;;;5013667;28;20096;-68
2023/01/17 06:59:01;;;;;;;1.45;0.60;;;0.30;99.90;;;;;;5015562;28;20045;-67
2023/01/17 07:01:26;;;;;;;7.55;1.10;;;0.00;99.90;;;;;;5020467;28;20116;-67
2023/01/17 07:03:52;;;;;;;7.10;0.80;;;0.10;99.90;;;;;;5021579;28;20794;-67
2023/01/17 07:06:19;;;;;;;7.13;0.80;;;0.10;99.90;;;;;;5025912;28;20060;-67
2023/01/17 07:08:46;;;;;;;7.22;0.95;;;0.10;99.90;;;;;;5028448;28;20041;-67
2023/01/17 07:11:12;;;;;;;6.53;1.40;;;0.10;99.90;;;;;;5028165;28;20095;-68
2023/01/17 07:13:38;;;;;;;4.85;1.10;;;0.20;99.90;;;;;;5024138;28;20602;-68
2023/01/17 07:16:05;;;;;;;1.25;0.70;;;0.20;99.90;;;;;;5031165;28;20044;-68
2023/01/17 07:18:32;;;;;;;5.30;0.77;;;0.20;99.90;;;;;;5033215;28;20397;-68
2023/01/17 07:20:58;;;;;;;4.45;0.80;;;0.20;99.90;;;;;;5028941;28;20450;-67
2023/01/17 07:23:24;;;;;;;7.30;0.95;;;0.10;99.90;;;;;;5031680;28;20095;-68
2023/01/17 07:25:54;;;;;;;2.88;1.02;;;0.10;99.90;;;;;;5034127;28;20132;-68
2023/01/17 07:28:20;;;;;;;;;;;0.10;99.90;;;;;;5029302;28;20076;-68
2023/01/17 07:30:45;;;;;;;3.25;0.70;;;0.10;99.90;;;;;;5013239;28;19948;-68
2023/01/17 07:33:11;;;;;;;3.88;1.00;;;0.10;99.90;;;;;;5032109;28;20103;-69
2023/01/17 07:35:37;;;;;;;6.40;1.75;;;0.10;99.90;;;;;;5030688;28;20384;-68
2023/01/17 07:38:04;;;;;;;4.93;0.90;;;0.10;99.90;;;;;;5028305;28;20044;-68
2023/01/17 07:40:30;;;;;;;5.07;1.73;;;0.10;99.90;;;;;;5031420;28;20037;-68
2023/01/17 07:43:12;;;;;;;3.42;0.80;;;0.20;99.90;;;;;;5029677;28;20044;-69
2023/01/17 07:45:40;;;;;;;6.65;0.90;;;0.10;99.90;;;;;;5031320;28;20048;-68
2023/01/17 07:48:06;;;;;;;4.72;0.98;;;0.00;99.90;;;;;;5028546;28;20072;-68
2023/01/17 07:50:32;;;;;;;3.20;0.70;;;0.10;99.90;;;;;;5026047;28;20065;-68
2023/01/17 07:52:57;;;;;;;3.53;0.57;;;0.10;99.90;;;;;;5028862;28;20481;-69
2023/01/17 07:55:23;;;;;;;10.25;1.02;;;0.00;99.90;;;;;;5030656;28;20037;-69
2023/01/17 07:57:49;;;;;;;2.05;0.65;;;-0.10;99.90;;;;;;5031111;28;20030;-68
2023/01/17 08:00:16;;;;;;;2.80;0.77;;;0.00;99.90;;;;;;5023743;28;20041;-69
2023/01/17 08:02:41;;;;;;;3.00;0.60;;;0.00;99.90;;;;;;5031898;28;20048;-69
2023/01/17 08:05:07;;;;;;;1.90;0.52;;;0.10;99.90;;;;;;5028251;28;20041;-68
2023/01/17 08:07:33;;;;;;;8.05;0.98;;;0.20;99.90;;;;;;5025342;28;20128;-68
2023/01/17 08:10:00;;;;;;;2.63;0.63;;;0.20;99.90;;;;;;5028443;28;20041;-68
2023/01/17 08:12:25;;;;;;;2.33;0.60;;;0.10;99.90;;;;;;5024810;28;20041;-69
2023/01/17 08:14:51;;;;;;;3.35;1.30;;;0.20;99.90;;;;;;5027222;28;20048;-68
2023/01/17 08:17:17;;;;;;;2.40;0.60;;;0.20;99.90;;;;;;5030900;28;20038;-69
2023/01/17 08:19:43;;;;;;;6.28;0.98;;;0.20;99.90;;;;;;5030881;28;20445;-69
2023/01/17 08:22:10;;;;;;;5.97;1.02;;;0.20;99.90;;;;;;5021973;28;20049;-68
2023/01/17 08:24:36;;;;;;;3.25;0.60;;;0.20;99.90;;;;;;5020326;28;20056;-69
2023/01/17 08:27:02;;;;;;;3.90;0.90;;;0.20;99.90;;;;;;5023998;28;20033;-69
2023/01/17 08:29:28;;;;;;;1.98;0.77;;;0.20;99.90;;;;;;5016185;28;20811;-69
2023/01/17 08:31:53;;;;;;;4.32;0.80;;;0.20;99.90;;;;;;5027015;28;20469;-69
2023/01/17 08:34:19;;;;;;;4.10;0.60;;;0.20;99.90;;;;;;5016086;28;20493;-68
2023/01/17 08:36:46;;;;;;;3.97;1.05;;;0.30;99.90;;;;;;5024716;28;20759;-68
2023/01/17 08:39:13;;;;;;;4.30;1.05;;;0.40;99.90;;;;;;5038371;28;20130;-68
2023/01/17 08:41:39;;;;;;;3.55;0.70;;;0.30;99.90;;;;;;5018004;28;20041;-68
2023/01/17 08:44:04;;;;;;;4.05;0.90;;;0.50;99.90;;;;;;5017501;28;20472;-69
2023/01/17 08:46:30;;;;;;;2.80;0.60;;;0.50;99.90;;;;;;5028151;28;20068;-69
2023/01/17 08:48:57;;;;;;;4.05;0.90;;;0.50;99.90;;;;;;5026690;28;20052;-69
2023/01/17 08:51:25;;;;;;;3.80;0.90;;;0.60;99.90;;;;;;5029308;28;20034;-68
2023/01/17 08:53:51;;;;;;;3.58;0.90;;;0.60;99.90;;;;;;5027522;28;20124;-68
2023/01/17 08:56:17;;;;;;;5.72;1.20;;;0.70;99.90;;;;;;5028158;28;20556;-68
2023/01/17 08:58:43;;;;;;;3.72;0.80;;;0.70;99.90;;;;;;5023627;28;20067;-69
2023/01/17 09:01:08;;;;;;;5.43;1.00;;;0.70;99.90;;;;;;5026145;28;20064;-69
2023/01/17 09:03:35;;;;;;;5.63;0.90;;;0.80;99.90;;;;;;5030672;28;20040;-69
2023/01/17 09:06:06;;;;;;;3.58;0.70;;;0.60;99.90;;;;;;5016408;28;20069;-67
2023/01/17 09:08:33;;;;;;;4.65;0.90;;;0.70;99.90;;;;;;5005521;28;20034;-69
2023/01/17 09:11:05;;;;;;;3.95;0.82;;;0.80;99.90;;;;;;5027824;28;20055;-68
2023/01/17 09:13:31;;;;;;;5.45;1.13;;;0.80;99.90;;;;;;5021727;28;20073;-68
2023/01/17 09:15:58;;;;;;;4.80;1.10;;;0.90;99.90;;;;;;5025273;28;20153;-69
2023/01/17 09:18:25;;;;;;;3.15;0.90;;;0.80;99.90;;;;;;5026202;28;20037;-68
2023/01/17 09:20:53;;;;;;;2.35;0.82;;;0.90;99.90;;;;;;5029051;28;20136;-69
2023/01/17 09:23:21;;;;;;;2.60;0.80;;;0.90;99.90;;;;;;5025103;28;20111;-69
2023/01/17 09:25:58;;;;;;;2.58;1.15;;;1.00;99.90;;;;;;5025368;28;20040;-68
2023/01/17 09:28:25;;;;;;;2.15;1.10;;;1.10;99.90;;;;;;5022105;28;20037;-69
2023/01/17 09:30:50;;;;;;;1.27;0.65;;;1.10;99.90;;;;;;5025837;28;20042;-68
2023/01/17 09:33:16;;;;;;;4.28;2.22;;;1.20;99.90;;;;;;5012508;28;20040;-69
2023/01/17 09:35:46;;;;;;;1.98;0.77;;;1.20;99.90;;;;;;5011888;28;20033;-69
2023/01/17 09:38:12;;;;;;;3.50;0.93;;;1.20;99.90;;;;;;5027935;28;20048;-69
2023/01/17 09:40:44;;;;;;;7.72;1.02;;;1.30;99.90;;;;;;5022946;28;20300;-69
2023/01/17 09:43:43;;;;;;;2.38;0.82;;;1.30;99.90;;;;;;5026195;28;20046;-69
2023/01/17 09:46:21;;;;;;;3.05;0.93;;;1.40;99.90;;;;;;5026105;28;20485;-69
2023/01/17 09:48:55;;;;;;;3.53;0.70;;;1.40;99.90;;;;;;5019429;28;20049;-70
2023/01/17 09:51:25;;;;;;;1.30;0.75;;;1.40;99.90;;;;;;5021670;28;20869;-69
2023/01/17 09:53:52;;;;;;;3.67;1.02;;;1.50;99.90;;;;;;5015864;28;20131;-70
2023/01/17 09:56:28;;;;;;;2.60;1.00;;;1.50;99.90;;;;;;5030920;28;20048;-70
2023/01/17 09:59:23;;;;;;;7.00;1.20;;;1.50;99.90;;;;;;5029636;28;20037;-69
2023/01/17 10:01:56;;;;;;;3.00;0.90;;;1.60;99.90;;;;;;5032476;28;20042;-70
2023/01/17 10:04:50;;;;;;;9.60;1.13;;;1.60;99.90;;;;;;5025447;28;20404;-70
2023/01/17 10:07:31;;;;;;;3.47;1.00;;;1.70;99.90;;;;;;5025937;28;20065;-70
2023/01/17 10:10:18;;;;;;;3.78;1.05;;;1.80;99.90;;;;;;5010766;28;20063;-69
2023/01/17 10:13:14;;;;;;;6.25;1.45;;;1.90;99.90;;;;;;5024917;28;20120;-70
2023/01/17 10:15:51;;;;;;;3.92;1.25;;;1.90;99.90;;;;;;5027963;28;20120;-70
2023/01/17 10:18:45;;;;;;;5.70;1.27;;;2.00;99.90;;;;;;4994801;28;20117;-70
2023/01/17 10:21:26;;;;;;;4.22;1.40;;;2.00;99.90;;;;;;5017944;28;20045;-70
2023/01/17 10:23:55;;;;;;;2.25;1.15;;;2.10;99.90;;;;;;5020919;28;20704;-69
2023/01/17 10:26:24;;;;;;;9.93;1.70;;;2.20;99.90;;;;;;5023722;28;20056;-70
2023/01/17 10:28:53;;;;;;;6.45;1.35;;;2.20;99.90;;;;;;5025890;28;20045;-70
2023/01/17 10:31:29;;;;;;;7.45;1.60;;;2.20;99.90;;;;;;5023799;28;20068;-69
2023/01/17 10:33:59;;;;;;;3.08;1.38;;;2.30;99.90;;;;;;5030651;28;20045;-69
2023/01/17 10:36:28;;;;;;;7.32;1.40;;;2.30;99.90;;;;;;5025033;28;20038;-69
2023/01/17 10:38:58;;;;;;;4.20;1.60;;;2.40;99.90;;;;;;5000144;28;20559;-70
2023/01/17 10:41:33;;;;;;;7.57;1.53;;;2.40;99.90;;;;;;5028508;28;20041;-70
2023/01/17 10:44:04;;;;;;;4.07;1.15;;;2.40;99.90;;;;;;5028105;28;20640;-69
2023/01/17 10:46:51;;;;;;;6.15;1.40;;;2.50;99.90;;;;;;5022326;28;20579;-70
2023/01/17 10:49:20;;;;;;;4.88;1.30;;;2.50;99.90;;;;;;5029123;28;20488;-68
2023/01/17 10:51:59;;;;;;;2.90;1.17;;;2.50;99.90;;;;;;5025366;28;20037;-68
2023/01/17 10:54:35;;;;;;;3.75;1.00;;;2.60;99.90;;;;;;5023640;28;20046;-69
2023/01/17 10:57:01;;;;;;;6.10;1.00;;;2.70;99.90;;;;;;5019309;28;20053;-68
2023/01/17 10:59:30;;;;;;;2.38;1.20;;;2.80;99.90;;;;;;5024287;28;20029;-69
2023/01/17 11:01:57;;;;;;;5.07;1.40;;;2.90;99.90;;;;;;5010159;28;20472;-68
2023/01/17 11:04:32;;;;;;;2.72;1.08;;;2.90;99.90;;;;;;5017845;28;20049;-69
2023/01/17 11:07:22;;;;;;;5.05;1.38;;;2.90;99.90;;;;;;5027957;28;20057;-68
2023/01/17 11:09:56;;;;;;;4.82;1.45;;;3.00;99.90;;;;;;5025629;28;20037;-68
2023/01/17 11:12:42;;;;;;;2.75;1.23;;;2.90;99.90;;;;;;5029163;28;20537;-68
2023/01/17 11:15:08;;;;;;;3.47;1.30;;;3.00;99.90;;;;;;5012917;28;20469;-68
2023/01/17 11:17:37;;;;;;;6.10;1.35;;;3.10;99.90;;;;;;5029251;28;20080;-68
2023/01/17 11:20:18;;;;;;;5.38;1.20;;;3.00;99.90;;;;;;5013929;28;20128;-68
2023/01/17 11:23:06;;;;;;;3.95;1.17;;;3.00;99.90;;;;;;5016045;28;20080;-67
2023/01/17 11:25:33;;;;;;;4.35;1.40;;;3.10;99.90;;;;;;5011335;28;20092;-67
2023/01/17 11:28:18;;;;;;;3.60;1.20;;;3.10;99.90;;;;;;5021701;28;20041;-67
2023/01/17 11:30:52;;;;;;;6.28;1.98;;;3.20;99.90;;;;;;5013505;28;20401;-68
2023/01/17 11:33:54;;;;;;;3.28;1.15;;;3.20;99.90;;;;;;5020333;28;20041;-67
2023/01/17 11:36:29;;;;;;;1.65;1.05;;;3.20;99.90;;;;;;5031097;28;20057;-67
2023/01/17 11:39:19;;;;;;;3.95;1.02;;;3.30;99.90;;;;;;5026054;28;20517;-67
2023/01/17 11:41:46;;;;;;;3.97;1.42;;;3.30;99.90;;;;;;5005871;28;20489;-66
2023/01/17 11:44:30;;;;;;;1.88;0.75;;;3.30;99.90;;;;;;5023652;28;20037;-66
2023/01/17 11:47:11;;;;;;;4.53;1.25;;;3.40;99.90;;;;;;5021270;28;20386;-66
2023/01/17 11:49:37;;;;;;;3.17;0.90;;;3.40;99.90;;;;;;5029559;28;20045;-66
2023/01/17 11:52:20;;;;;;;4.20;1.50;;;3.40;99.90;;;;;;5031147;28;20042;-67
2023/01/17 11:54:47;;;;;;;2.20;0.70;;;3.50;99.90;;;;;;5024592;28;20061;-66
2023/01/17 11:57:26;;;;;;;5.10;0.93;;;3.50;99.90;;;;;;5027627;28;20749;-66
2023/01/17 12:00:18;;;;;;;3.80;1.00;;;3.50;99.90;;;;;;5020121;28;20064;-65
2023/01/17 12:03:14;;;;;;;2.70;1.00;;;3.50;99.90;;;;;;5016128;28;20041;-66
2023/01/17 12:05:52;;;;;;;3.78;1.10;;;3.70;99.90;;;;;;5027136;28;20075;-66
2023/01/17 12:08:58;;;;;;;5.70;1.13;;;3.70;99.90;;;;;;5028090;28;20049;-65
2023/01/17 12:13:59;;;;;;;4.53;0.93;;;3.80;99.90;;;;;;5029246;28;20041;-66
2023/01/17 12:14:57;;;;;;;2.60;1.20;;;3.80;99.90;;;;;;5027635;28;20065;-66
2023/01/17 12:17:45;;;;;;;3.60;1.20;;;3.90;99.90;;;;;;5028763;28;20080;-65
2023/01/17 12:20:31;;;;;;;6.20;1.25;;;3.90;99.90;;;;;;5027867;28;20049;-65
2023/01/17 12:23:07;;;;;;;5.75;1.40;;;4.00;99.90;;;;;;5028669;28;20041;-66
2023/01/17 12:25:46;;;;;;;4.60;1.10;;;4.10;99.90;;;;;;5028165;28;20045;-66
2023/01/17 12:28:21;;;;;;;4.13;1.40;;;4.00;99.90;;;;;;5014033;28;20045;-65
2023/01/17 12:31:21;;;;;;;4.88;1.20;;;4.20;99.90;;;;;;5027896;28;20037;-65
2023/01/17 12:33:52;;;;;;;4.38;1.00;;;4.30;99.90;;;;;;5028809;28;20096;-65
2023/01/17 12:36:20;;;;;;;3.75;1.33;;;4.20;99.90;;;;;;5027898;28;20045;-66
2023/01/17 12:38:47;;;;;;;3.75;1.13;;;4.30;99.90;;;;;;5031301;28;20037;-66
2023/01/17 12:41:31;;;;;;;5.13;1.23;;;4.40;99.90;;;;;;5031245;28;20103;-66
2023/01/17 12:43:59;;;;;;;3.83;1.25;;;4.40;99.90;;;;;;5030587;28;20611;-66
2023/01/17 12:46:37;;;;;;;4.32;1.20;;;4.50;99.90;;;;;;5027697;28;20600;-65
2023/01/17 12:49:35;;;;;;;2.92;1.13;;;4.60;99.90;;;;;;5033522;28;20096;-66
2023/01/17 12:52:17;;;;;;;4.05;1.30;;;4.60;99.90;;;;;;5030182;28;20068;-65
2023/01/17 12:54:55;;;;;;;4.68;1.15;;;4.70;99.90;;;;;;5031170;28;20172;-66
2023/01/17 12:57:30;;;;;;;4.53;1.30;;;4.80;99.90;;;;;;5026801;28;20037;-65
2023/01/17 13:00:02;;;;;;;5.28;1.17;;;4.80;99.90;;;;;;5021528;28;20045;-65
2023/01/17 13:02:36;;;;;;;3.28;1.10;;;4.90;99.90;;;;;;5028407;28;20056;-65
2023/01/17 13:05:06;;;;;;;2.03;0.93;;;4.80;99.90;;;;;;5031106;28;20038;-65
2023/01/17 13:07:51;;;;;;;4.20;1.02;;;4.80;99.90;;;;;;5028363;28;20046;-65
2023/01/17 13:10:39;;;;;;;6.40;1.00;;;4.70;99.90;;;;;;5031390;28;20068;-64
2023/01/17 13:13:31;;;;;;;3.38;1.23;;;4.80;99.90;;;;;;5030761;28;20068;-65
2023/01/17 13:16:24;;;;;;;6.57;1.65;;;4.90;99.90;;;;;;5028410;28;20124;-65
2023/01/17 13:18:51;;;;;;;5.28;2.38;;;5.00;99.90;;;;;;5022500;28;20106;-65
2023/01/17 13:21:22;;;;;;;1.98;1.02;;;5.10;99.90;;;;;;5029524;28;20041;-65
2023/01/17 13:23:57;;;;;;;4.88;1.25;;;5.00;99.90;;;;;;5027157;28;20072;-65
2023/01/17 13:26:23;;;;;;;4.78;1.08;;;4.90;99.90;;;;;;5031515;28;20046;-65
2023/01/17 13:28:59;;;;;;;3.10;1.15;;;4.90;99.90;;;;;;5029125;28;20045;-65
2023/01/17 13:31:35;;;;;;;2.33;0.90;;;4.70;99.90;;;;;;5029714;28;20120;-65
2023/01/17 13:34:35;;;;;;;3.42;1.00;;;4.60;99.90;;;;;;5029830;28;20041;-64
2023/01/17 13:37:34;;;;;;;1.73;0.77;;;4.40;99.90;;;;;;5028627;28;20420;-64
2023/01/17 13:40:20;;;;;;;1.35;0.68;;;4.30;98.30;;;;;;5022911;28;20041;-64
2023/01/17 13:42:55;;;;;;;3.28;0.70;;;4.10;99.30;;;;;;5042805;28;20059;-65
2023/01/17 13:45:26;;;;;;;4.63;0.90;;;4.00;99.90;;;;;;5020381;28;20087;-66
2023/01/17 13:47:52;;;;;;;2.50;0.57;;;3.90;99.90;;;;;;5029364;28;20381;-66
2023/01/17 13:50:37;;;;;;;3.65;0.70;;;3.80;99.90;;;;;;5030472;28;20049;-66
2023/01/17 13:53:24;;;;;;;3.45;0.88;;;3.80;99.90;;;;;;5027470;28;20046;-66
2023/01/17 13:55:52;;;;;;;3.55;0.75;;;3.90;99.90;;;;;;5028026;28;20052;-65
2023/01/17 13:58:57;;;;;;;2.53;0.90;;;3.90;99.90;;;;;;5027362;28;20044;-67
2023/01/17 14:01:22;;;;;;;2.08;0.80;;;3.90;99.90;;;;;;5030271;28;20373;-66
2023/01/17 14:03:48;;;;;;;1.35;0.82;;;4.00;99.90;;;;;;5029183;28;20152;-65
2023/01/17 14:06:32;;;;;;;1.77;0.60;;;4.10;99.90;;;;;;5026921;28;20140;-65
2023/01/17 14:09:10;;;;;;;1.35;0.55;;;4.20;99.90;;;;;;5010940;28;20107;-65
2023/01/17 14:12:08;;;;;;;4.38;0.73;;;4.40;98.40;;;;;;5023965;28;20052;-65
2023/01/17 14:14:40;;;;;;;2.03;0.68;;;4.70;99.90;;;;;;5012220;28;20053;-64
2023/01/17 14:17:15;;;;;;;3.35;0.85;;;4.40;96.80;;;;;;5027806;28;20041;-64
2023/01/17 14:19:46;;;;;;;2.97;0.80;;;4.30;99.90;;;;;;5025030;28;20662;-65
2023/01/17 14:22:17;;;;;;;2.53;1.00;;;4.20;99.90;;;;;;5028038;28;20080;-65
2023/01/17 14:25:10;;;;;;;2.63;0.80;;;4.20;99.90;;;;;;5030278;28;20083;-65
2023/01/17 14:27:48;;;;;;;2.35;0.70;;;4.10;98.50;;;;;;5029006;28;20041;-65
2023/01/17 14:30:21;;;;;;;2.03;0.63;;;4.00;99.90;;;;;;5028995;28;20400;-65
2023/01/17 14:33:01;;;;;;;3.15;0.70;;;4.00;99.90;;;;;;5024775;28;20055;-65
2023/01/17 14:35:48;;;;;;;4.60;1.45;;;3.90;99.90;;;;;;5031108;28;20033;-65
2023/01/17 14:38:22;;;;;;;2.97;0.85;;;3.90;98.20;;;;;;5032734;28;20045;-65
2023/01/17 14:40:57;;;;;;;4.78;0.80;;;3.80;99.90;;;;;;5030745;28;20171;-65
2023/01/17 14:43:25;;;;;;;3.15;0.60;;;3.70;99.90;;;;;;5025735;28;20045;-65
2023/01/17 14:46:01;;;;;;;5.63;1.33;;;3.70;99.90;;;;;;5026293;28;20052;-65